sensor_id;sensor_type;location;lat;lon;timestamp;pressure;altitude;pressure_sealevel;temperature;humidity
14818;BME280;7500;57.698;11.986;2023-02-01T00:02:03;99551.63;;;7.19;100.00
14818;BME280;7500;57.698;11.986;2023-02-01T00:04:30;99549.00;;;7.49;100.00
14818;BME280;7500;57.698;11.986;2023-02-01T00:06:57;99551.09;;;7.58;100.00
14818;BME280;7500;57.698;11.986;2023-02-01T00:09:24;99552.72;;;7.60;100.00
14818;BME280;7500;57.698;11.986;2023-02-01T00:11:50;99550.94;;;7.61;100.00
14818;BME280;7500;57.698;11.986;2023-02-01T00:14:18;99563.56;;;7.54;100.00
14818;BME280;7500;57.698;11.986;2023-02-01T00:16:44;99556.88;;;7.49;100.00
14818;BME280;7500;57.698;11.986;2023-02-01T00:19:14;99557.81;;;7.48;100.00
14818;BME280;7500;57.698;11.986;2023-02-01T00:21:41;99554.09;;;7.52;100.00
14818;BME280;7500;57.698;11.986;2023-02-01T00:24:10;99551.91;;;7.44;100.00
14818;BME280;7500;57.698;11.986;2023-02-01T00:26:39;99546.09;;;7.24;100.00
14818;BME280;7500;57.698;11.986;2023-02-01T00:29:07;99562.91;;;7.35;100.00
14818;BME280;7500;57.698;11.986;2023-02-01T00:31:35;99553.19;;;7.37;100.00
14818;BME280;7500;57.698;11.986;2023-02-01T00:34:03;99558.44;;;7.37;100.00
14818;BME280;7500;57.698;11.986;2023-02-01T00:36:31;99556.31;;;7.44;100.00
14818;BME280;7500;57.698;11.986;2023-02-01T00:38:58;99557.91;;;7.46;100.00
14818;BME280;7500;57.698;11.986;2023-02-01T00:41:25;99550.22;;;7.43;100.00
14818;BME280;7500;57.698;11.986;2023-02-01T00:43:52;99550.91;;;7.47;100.00
14818;BME280;7500;57.698;11.986;2023-02-01T00:46:19;99557.31;;;7.41;100.00
14818;BME280;7500;57.698;11.986;2023-02-01T00:48:47;99556.16;;;7.47;100.00
14818;BME280;7500;57.698;11.986;2023-02-01T00:51:16;99560.53;;;7.46;100.00
14818;BME280;7500;57.698;11.986;2023-02-01T00:53:44;99551.84;;;7.46;100.00
14818;BME280;7500;57.698;11.986;2023-02-01T00:56:11;99547.16;;;7.35;100.00
14818;BME280;7500;57.698;11.986;2023-02-01T00:58:38;99545.72;;;7.45;100.00
14818;BME280;7500;57.698;11.986;2023-02-01T01:01:07;99554.88;;;7.38;100.00
14818;BME280;7500;57.698;11.986;2023-02-01T01:03:36;99551.06;;;7.44;100.00
14818;BME280;7500;57.698;11.986;2023-02-01T01:06:06;99554.63;;;7.43;100.00
14818;BME280;7500;57.698;11.986;2023-02-01T01:08:33;99554.81;;;7.40;100.00
14818;BME280;7500;57.698;11.986;2023-02-01T01:11:05;99551.56;;;7.50;100.00
14818;BME280;7500;57.698;11.986;2023-02-01T01:13:32;99544.69;;;7.48;100.00
14818;BME280;7500;57.698;11.986;2023-02-01T01:16:00;99558.97;;;7.58;100.00
14818;BME280;7500;57.698;11.986;2023-02-01T01:18:28;99562.53;;;7.57;100.00
14818;BME280;7500;57.698;11.986;2023-02-01T01:20:55;99568.84;;;7.54;100.00
14818;BME280;7500;57.698;11.986;2023-02-01T01:23:22;99550.69;;;7.50;100.00
14818;BME280;7500;57.698;11.986;2023-02-01T01:25:49;99567.44;;;7.63;100.00
14818;BME280;7500;57.698;11.986;2023-02-01T01:28:18;99552.56;;;7.63;100.00
14818;BME280;7500;57.698;11.986;2023-02-01T01:30:45;99552.56;;;7.63;100.00
14818;BME280;7500;57.698;11.986;2023-02-01T01:33:12;99559.38;;;7.66;100.00
14818;BME280;7500;57.698;11.986;2023-02-01T01:35:39;99556.16;;;7.47;100.00
14818;BME280;7500;57.698;11.986;2023-02-01T01:38:06;99555.25;;;7.62;100.00
14818;BME280;7500;57.698;11.986;2023-02-01T01:40:33;99557.25;;;7.72;100.00
14818;BME280;7500;57.698;11.986;2023-02-01T01:43:00;99573.09;;;7.71;100.00
14818;BME280;7500;57.698;11.986;2023-02-01T01:45:30;99550.28;;;7.71;100.00
14818;BME280;7500;57.698;11.986;2023-02-01T01:47:59;99559.78;;;7.74;100.00
14818;BME280;7500;57.698;11.986;2023-02-01T01:50:30;99539.63;;;7.74;100.00
14818;BME280;7500;57.698;11.986;2023-02-01T01:53:00;99551.34;;;7.69;100.00
14818;BME280;7500;57.698;11.986;2023-02-01T01:55:32;99549.00;;;7.78;100.00
14818;BME280;7500;57.698;11.986;2023-02-01T01:58:02;99550.41;;;7.83;100.00
14818;BME280;7500;57.698;11.986;2023-02-01T02:00:33;99553.66;;;7.14;100.00
14818;BME280;7500;57.698;11.986;2023-02-01T02:03:05;99559.94;;;6.96;100.00
14818;BME280;7500;57.698;11.986;2023-02-01T02:05:35;99574.22;;;6.91;100.00
14818;BME280;7500;57.698;11.986;2023-02-01T02:08:02;99576.41;;;6.98;100.00
14818;BME280;7500;57.698;11.986;2023-02-01T02:10:29;99580.66;;;7.01;100.00
14818;BME280;7500;57.698;11.986;2023-02-01T02:13:11;99574.47;;;7.02;100.00
14818;BME280;7500;57.698;11.986;2023-02-01T02:15:44;99576.78;;;7.53;100.00
14818;BME280;7500;57.698;11.986;2023-02-01T02:18:18;99578.66;;;7.80;100.00
14818;BME280;7500;57.698;11.986;2023-02-01T02:20:58;99567.88;;;7.84;100.00
14818;BME280;7500;57.698;11.986;2023-02-01T02:23:54;99584.97;;;7.78;100.00
14818;BME280;7500;57.698;11.986;2023-02-01T02:26:52;99572.81;;;7.75;100.00
14818;BME280;7500;57.698;11.986;2023-02-01T02:33:03;99589.38;;;7.01;100.00
14818;BME280;7500;57.698;11.986;2023-02-01T02:35:40;99512.31;;;6.73;100.00
14818;BME280;7500;57.698;11.986;2023-02-01T02:38:17;99582.09;;;7.06;100.00
14818;BME280;7500;57.698;11.986;2023-02-01T02:40:51;99579.72;;;7.02;100.00
14818;BME280;7500;57.698;11.986;2023-02-01T02:43:29;99583.13;;;7.04;100.00
14818;BME280;7500;57.698;11.986;2023-02-01T02:46:21;99581.25;;;7.06;100.00
14818;BME280;7500;57.698;11.986;2023-02-01T02:49:11;99571.69;;;7.05;100.00
14818;BME280;7500;57.698;11.986;2023-02-01T02:51:44;99579.91;;;6.99;100.00
14818;BME280;7500;57.698;11.986;2023-02-01T02:54:32;99585.75;;;7.04;100.00
14818;BME280;7500;57.698;11.986;2023-02-01T02:57:18;99576.94;;;7.05;100.00
14818;BME280;7500;57.698;11.986;2023-02-01T03:00:06;99571.75;;;7.03;100.00
14818;BME280;7500;57.698;11.986;2023-02-01T03:02:52;99577.28;;;7.14;100.00
14818;BME280;7500;57.698;11.986;2023-02-01T03:05:40;99573.38;;;7.06;100.00
14818;BME280;7500;57.698;11.986;2023-02-01T03:08:12;99541.16;;;6.88;100.00
14818;BME280;7500;57.698;11.986;2023-02-01T03:10:48;99566.19;;;7.09;100.00
14818;BME280;7500;57.698;11.986;2023-02-01T03:13:25;99560.34;;;7.04;100.00
14818;BME280;7500;57.698;11.986;2023-02-01T03:15:59;99568.97;;;7.06;100.00
14818;BME280;7500;57.698;11.986;2023-02-01T03:18:32;99569.91;;;7.05;100.00
14818;BME280;7500;57.698;11.986;2023-02-01T03:21:03;99563.28;;;6.98;100.00
14818;BME280;7500;57.698;11.986;2023-02-01T03:23:35;99563.22;;;7.00;100.00
14818;BME280;7500;57.698;11.986;2023-02-01T03:26:06;99557.22;;;6.98;100.00
14818;BME280;7500;57.698;11.986;2023-02-01T03:28:34;99562.13;;;7.04;100.00
14818;BME280;7500;57.698;11.986;2023-02-01T03:31:03;99557.53;;;7.07;100.00
14818;BME280;7500;57.698;11.986;2023-02-01T03:33:30;99562.19;;;7.02;100.00
14818;BME280;7500;57.698;11.986;2023-02-01T03:36:09;99545.69;;;7.00;100.00
14818;BME280;7500;57.698;11.986;2023-02-01T03:38:46;99558.81;;;7.00;100.00
14818;BME280;7500;57.698;11.986;2023-02-01T03:41:19;99551.69;;;7.02;100.00
14818;BME280;7500;57.698;11.986;2023-02-01T03:43:53;99557.47;;;7.09;100.00
14818;BME280;7500;57.698;11.986;2023-02-01T03:46:27;99563.50;;;7.11;100.00
14818;BME280;7500;57.698;11.986;2023-02-01T03:49:00;99564.50;;;7.08;100.00
14818;BME280;7500;57.698;11.986;2023-02-01T03:51:29;99562.28;;;7.16;100.00
14818;BME280;7500;57.698;11.986;2023-02-01T03:54:01;99566.28;;;7.08;100.00
14818;BME280;7500;57.698;11.986;2023-02-01T03:56:30;99512.38;;;6.71;100.00
14818;BME280;7500;57.698;11.986;2023-02-01T03:58:58;99575.41;;;7.16;100.00
14818;BME280;7500;57.698;11.986;2023-02-01T04:01:26;99577.59;;;7.24;100.00
14818;BME280;7500;57.698;11.986;2023-02-01T04:03:53;99507.28;;;6.84;100.00
14818;BME280;7500;57.698;11.986;2023-02-01T04:06:20;99525.41;;;7.04;100.00
14818;BME280;7500;57.698;11.986;2023-02-01T04:08:47;99570.47;;;7.26;100.00
14818;BME280;7500;57.698;11.986;2023-02-01T04:11:16;99569.38;;;7.30;100.00
14818;BME280;7500;57.698;11.986;2023-02-01T04:13:43;99572.13;;;7.13;100.00
14818;BME280;7500;57.698;11.986;2023-02-01T04:16:10;99562.53;;;7.27;100.00
14818;BME280;7500;57.698;11.986;2023-02-01T04:18:36;99563.38;;;7.28;100.00
14818;BME280;7500;57.698;11.986;2023-02-01T04:21:04;99563.22;;;7.15;100.00
14818;BME280;7500;57.698;11.986;2023-02-01T04:23:31;99557.69;;;7.20;100.00
14818;BME280;7500;57.698;11.986;2023-02-01T04:26:01;99561.94;;;7.22;100.00
14818;BME280;7500;57.698;11.986;2023-02-01T04:28:31;99517.53;;;7.04;100.00
14818;BME280;7500;57.698;11.986;2023-02-01T04:30:58;99551.97;;;7.13;100.00
14818;BME280;7500;57.698;11.986;2023-02-01T04:33:24;99547.38;;;7.17;100.00
14818;BME280;7500;57.698;11.986;2023-02-01T04:35:51;99539.50;;;7.17;100.00
14818;BME280;7500;57.698;11.986;2023-02-01T04:38:18;99542.88;;;7.19;100.00
14818;BME280;7500;57.698;11.986;2023-02-01T04:40:47;99541.03;;;7.21;100.00
14818;BME280;7500;57.698;11.986;2023-02-01T04:43:14;99552.63;;;7.17;100.00
14818;BME280;7500;57.698;11.986;2023-02-01T04:45:46;99533.75;;;7.10;100.00
14818;BME280;7500;57.698;11.986;2023-02-01T04:48:13;99540.44;;;7.16;100.00
14818;BME280;7500;57.698;11.986;2023-02-01T04:50:40;99535.19;;;7.16;100.00
14818;BME280;7500;57.698;11.986;2023-02-01T04:53:07;99521.13;;;7.17;100.00
14818;BME280;7500;57.698;11.986;2023-02-01T04:55:34;99523.09;;;7.13;100.00
14818;BME280;7500;57.698;11.986;2023-02-01T04:58:00;99525.22;;;7.07;100.00
14818;BME280;7500;57.698;11.986;2023-02-01T05:00:27;99518.63;;;7.00;100.00
14818;BME280;7500;57.698;11.986;2023-02-01T05:02:55;99529.13;;;7.00;100.00
14818;BME280;7500;57.698;11.986;2023-02-01T05:05:22;99530.81;;;7.01;100.00
14818;BME280;7500;57.698;11.986;2023-02-01T05:07:49;99535.03;;;7.03;100.00
14818;BME280;7500;57.698;11.986;2023-02-01T05:10:16;99532.94;;;7.10;100.00
14818;BME280;7500;57.698;11.986;2023-02-01T05:12:43;99534.84;;;7.06;100.00
14818;BME280;7500;57.698;11.986;2023-02-01T05:15:28;99540.81;;;7.10;100.00
14818;BME280;7500;57.698;11.986;2023-02-01T05:17:56;99539.09;;;7.09;100.00
14818;BME280;7500;57.698;11.986;2023-02-01T05:20:23;99547.75;;;7.11;100.00
14818;BME280;7500;57.698;11.986;2023-02-01T05:22:50;99548.56;;;7.11;100.00
14818;BME280;7500;57.698;11.986;2023-02-01T05:25:17;99545.34;;;7.06;100.00
14818;BME280;7500;57.698;11.986;2023-02-01T05:27:44;99555.53;;;6.97;100.00
14818;BME280;7500;57.698;11.986;2023-02-01T05:30:12;99549.19;;;7.01;100.00
14818;BME280;7500;57.698;11.986;2023-02-01T05:32:39;99556.88;;;7.04;100.00
14818;BME280;7500;57.698;11.986;2023-02-01T05:35:08;99551.88;;;6.99;100.00
14818;BME280;7500;57.698;11.986;2023-02-01T05:37:35;99556.00;;;7.03;100.00
14818;BME280;7500;57.698;11.986;2023-02-01T05:40:02;99556.88;;;7.04;100.00
14818;BME280;7500;57.698;11.986;2023-02-01T05:42:29;99552.16;;;7.69;100.00
14818;BME280;7500;57.698;11.986;2023-02-01T05:44:56;99554.56;;;7.87;100.00
14818;BME280;7500;57.698;11.986;2023-02-01T05:47:23;99548.59;;;7.99;100.00
14818;BME280;7500;57.698;11.986;2023-02-01T05:49:50;99554.50;;;8.03;100.00
14818;BME280;7500;57.698;11.986;2023-02-01T05:52:18;99544.69;;;7.48;100.00
14818;BME280;7500;57.698;11.986;2023-02-01T05:54:45;99553.13;;;7.23;100.00
14818;BME280;7500;57.698;11.986;2023-02-01T05:57:12;99551.97;;;7.13;100.00
14818;BME280;7500;57.698;11.986;2023-02-01T05:59:39;99552.88;;;7.12;100.00
14818;BME280;7500;57.698;11.986;2023-02-01T06:02:10;99546.81;;;7.12;100.00
14818;BME280;7500;57.698;11.986;2023-02-01T06:04:37;99556.38;;;7.13;100.00
14818;BME280;7500;57.698;11.986;2023-02-01T06:07:04;99558.03;;;7.14;100.00
14818;BME280;7500;57.698;11.986;2023-02-01T06:09:33;99542.38;;;7.12;100.00
14818;BME280;7500;57.698;11.986;2023-02-01T06:12:01;99539.09;;;7.83;100.00
14818;BME280;7500;57.698;11.986;2023-02-01T06:14:28;99540.00;;;7.39;100.00
14818;BME280;7500;57.698;11.986;2023-02-01T06:16:55;99541.03;;;7.21;100.00
14818;BME280;7500;57.698;11.986;2023-02-01T06:19:22;99541.78;;;7.23;100.00
14818;BME280;7500;57.698;11.986;2023-02-01T06:21:49;99530.63;;;7.19;100.00
14818;BME280;7500;57.698;11.986;2023-02-01T06:24:16;99523.19;;;7.12;100.00
14818;BME280;7500;57.698;11.986;2023-02-01T06:26:44;99532.03;;;7.25;100.00
14818;BME280;7500;57.698;11.986;2023-02-01T06:29:11;99532.81;;;7.27;100.00
14818;BME280;7500;57.698;11.986;2023-02-01T06:31:38;99531.88;;;7.28;100.00
14818;BME280;7500;57.698;11.986;2023-02-01T06:34:08;99551.69;;;7.63;100.00
14818;BME280;7500;57.698;11.986;2023-02-01T06:36:34;99539.41;;;7.34;100.00
14818;BME280;7500;57.698;11.986;2023-02-01T06:39:01;99549.00;;;7.78;100.00
14818;BME280;7500;57.698;11.986;2023-02-01T06:41:29;99548.97;;;8.07;100.00
14818;BME280;7500;57.698;11.986;2023-02-01T06:43:57;99551.44;;;8.10;100.00
14818;BME280;7500;57.698;11.986;2023-02-01T06:46:24;99551.13;;;8.15;100.00
14818;BME280;7500;57.698;11.986;2023-02-01T06:48:51;99552.41;;;8.23;100.00
14818;BME280;7500;57.698;11.986;2023-02-01T06:51:19;99553.88;;;8.13;100.00
14818;BME280;7500;57.698;11.986;2023-02-01T06:53:47;99547.94;;;8.10;100.00
14818;BME280;7500;57.698;11.986;2023-02-01T06:56:14;99547.19;;;8.08;100.00
14818;BME280;7500;57.698;11.986;2023-02-01T06:58:41;99544.91;;;8.02;100.00
14818;BME280;7500;57.698;11.986;2023-02-01T07:01:10;99544.91;;;8.02;100.00
14818;BME280;7500;57.698;11.986;2023-02-01T07:03:37;99553.91;;;7.84;100.00
14818;BME280;7500;57.698;11.986;2023-02-01T07:06:05;99551.75;;;7.77;100.00
14818;BME280;7500;57.698;11.986;2023-02-01T07:08:34;99541.53;;;7.86;100.00
14818;BME280;7500;57.698;11.986;2023-02-01T07:11:02;99539.38;;;7.79;100.00
14818;BME280;7500;57.698;11.986;2023-02-01T07:13:29;99531.56;;;7.77;100.00
14818;BME280;7500;57.698;11.986;2023-02-01T07:15:58;99552.69;;;7.89;100.00
14818;BME280;7500;57.698;11.986;2023-02-01T07:18:26;99534.41;;;7.88;100.00
14818;BME280;7500;57.698;11.986;2023-02-01T07:20:54;99545.50;;;7.64;100.00
14818;BME280;7500;57.698;11.986;2023-02-01T07:23:21;99541.97;;;7.04;100.00
14818;BME280;7500;57.698;11.986;2023-02-01T07:25:52;99540.63;;;6.97;100.00
14818;BME280;7500;57.698;11.986;2023-02-01T07:28:19;99550.44;;;6.94;100.00
14818;BME280;7500;57.698;11.986;2023-02-01T07:30:46;99541.97;;;6.89;100.00
14818;BME280;7500;57.698;11.986;2023-02-01T07:33:17;99544.59;;;6.89;100.00
14818;BME280;7500;57.698;11.986;2023-02-01T07:35:46;99536.41;;;6.79;100.00
14818;BME280;7500;57.698;11.986;2023-02-01T07:38:13;99530.88;;;6.84;100.00
14818;BME280;7500;57.698;11.986;2023-02-01T07:40:40;99541.78;;;7.23;100.00
14818;BME280;7500;57.698;11.986;2023-02-01T07:43:07;99536.63;;;7.51;100.00
14818;BME280;7500;57.698;11.986;2023-02-01T07:45:35;99526.88;;;7.39;100.00
14818;BME280;7500;57.698;11.986;2023-02-01T07:48:02;99526.06;;;7.52;100.00
14818;BME280;7500;57.698;11.986;2023-02-01T07:50:30;99529.34;;;7.56;100.00
14818;BME280;7500;57.698;11.986;2023-02-01T07:53:00;99523.91;;;7.59;100.00
14818;BME280;7500;57.698;11.986;2023-02-01T07:55:27;99534.88;;;7.65;100.00
14818;BME280;7500;57.698;11.986;2023-02-01T07:57:57;99537.16;;;7.57;100.00
14818;BME280;7500;57.698;11.986;2023-02-01T08:00:25;99526.53;;;7.59;100.00
14818;BME280;7500;57.698;11.986;2023-02-01T08:03:09;99519.94;;;7.52;100.00
14818;BME280;7500;57.698;11.986;2023-02-01T08:05:36;99525.38;;;7.49;100.00
14818;BME280;7500;57.698;11.986;2023-02-01T08:08:05;99528.56;;;7.54;100.00
14818;BME280;7500;57.698;11.986;2023-02-01T08:10:32;99531.91;;;7.57;100.00
14818;BME280;7500;57.698;11.986;2023-02-01T08:13:00;99525.44;;;7.63;100.00
14818;BME280;7500;57.698;11.986;2023-02-01T08:15:28;99528.91;;;7.63;100.00
14818;BME280;7500;57.698;11.986;2023-02-01T08:17:55;99535.94;;;7.63;100.00
14818;BME280;7500;57.698;11.986;2023-02-01T08:20:23;99523.56;;;7.65;100.00
14818;BME280;7500;57.698;11.986;2023-02-01T08:22:51;99544.28;;;7.69;100.00
14818;BME280;7500;57.698;11.986;2023-02-01T08:25:20;99535.66;;;7.67;100.00
14818;BME280;7500;57.698;11.986;2023-02-01T08:27:47;99544.28;;;7.69;100.00
14818;BME280;7500;57.698;11.986;2023-02-01T08:30:14;99546.09;;;7.82;100.00
14818;BME280;7500;57.698;11.986;2023-02-01T08:32:42;99539.72;;;7.86;100.00
14818;BME280;7500;57.698;11.986;2023-02-01T08:35:09;99540.31;;;7.91;100.00
14818;BME280;7500;57.698;11.986;2023-02-01T08:37:36;99534.28;;;7.89;100.00
14818;BME280;7500;57.698;11.986;2023-02-01T08:40:04;99524.06;;;7.85;100.00
14818;BME280;7500;57.698;11.986;2023-02-01T08:42:32;99533.94;;;7.95;100.00
14818;BME280;7500;57.698;11.986;2023-02-01T08:45:24;99530.66;;;7.92;100.00
14818;BME280;7500;57.698;11.986;2023-02-01T08:47:52;99536.50;;;7.97;100.00
14818;BME280;7500;57.698;11.986;2023-02-01T08:50:20;99540.34;;;8.05;100.00
14818;BME280;7500;57.698;11.986;2023-02-01T08:52:48;99546.53;;;8.04;100.00
14818;BME280;7500;57.698;11.986;2023-02-01T08:55:15;99547.28;;;8.06;100.00
14818;BME280;7500;57.698;11.986;2023-02-01T08:57:42;99542.03;;;8.06;100.00
14818;BME280;7500;57.698;11.986;2023-02-01T09:00:12;99516.66;;;7.91;100.00
14818;BME280;7500;57.698;11.986;2023-02-01T09:02:42;99511.75;;;7.85;100.00
14818;BME280;7500;57.698;11.986;2023-02-01T09:05:09;99545.84;;;8.01;100.00
14818;BME280;7500;57.698;11.986;2023-02-01T09:07:37;99539.22;;;8.09;100.00
14818;BME280;7500;57.698;11.986;2023-02-01T09:10:04;99549.81;;;8.08;100.00
14818;BME280;7500;57.698;11.986;2023-02-01T09:12:32;99542.78;;;8.08;100.00
14818;BME280;7500;57.698;11.986;2023-02-01T09:15:00;99552.38;;;8.09;100.00
14818;BME280;7500;57.698;11.986;2023-02-01T09:17:27;99539.63;;;8.17;100.00
14818;BME280;7500;57.698;11.986;2023-02-01T09:19:56;99536.19;;;8.31;100.00
14818;BME280;7500;57.698;11.986;2023-02-01T09:22:22;99540.19;;;8.36;100.00
14818;BME280;7500;57.698;11.986;2023-02-01T09:24:52;99532.88;;;8.41;100.00
14818;BME280;7500;57.698;11.986;2023-02-01T09:27:19;99545.09;;;8.42;100.00
14818;BME280;7500;57.698;11.986;2023-02-01T09:29:46;99543.41;;;8.41;100.00
14818;BME280;7500;57.698;11.986;2023-02-01T09:32:18;99537.53;;;8.50;100.00
14818;BME280;7500;57.698;11.986;2023-02-01T09:34:45;99543.19;;;8.58;100.00
14818;BME280;7500;57.698;11.986;2023-02-01T09:37:13;99546.38;;;8.63;100.00
14818;BME280;7500;57.698;11.986;2023-02-01T09:39:40;99541.50;;;8.57;100.00
14818;BME280;7500;57.698;11.986;2023-02-01T09:42:16;99544.00;;;8.73;100.00
14818;BME280;7500;57.698;11.986;2023-02-01T09:45:01;99535.84;;;8.77;100.00
14818;BME280;7500;57.698;11.986;2023-02-01T09:47:30;99530.22;;;8.69;100.00
14818;BME280;7500;57.698;11.986;2023-02-01T09:50:01;99534.59;;;8.83;100.00
14818;BME280;7500;57.698;11.986;2023-02-01T09:52:34;99539.22;;;8.79;100.00
14818;BME280;7500;57.698;11.986;2023-02-01T09:55:05;99536.75;;;8.90;100.00
14818;BME280;7500;57.698;11.986;2023-02-01T09:57:41;99539.09;;;8.95;100.00
14818;BME280;7500;57.698;11.986;2023-02-01T10:00:17;99547.28;;;8.90;100.00
14818;BME280;7500;57.698;11.986;2023-02-01T10:02:47;99549.81;;;8.92;100.00
14818;BME280;7500;57.698;11.986;2023-02-01T10:05:25;99551.41;;;8.94;100.00
14818;BME280;7500;57.698;11.986;2023-02-01T10:08:01;99551.66;;;9.03;100.00
14818;BME280;7500;57.698;11.986;2023-02-01T10:10:36;99555.72;;;9.09;100.00
14818;BME280;7500;57.698;11.986;2023-02-01T10:13:24;99553.50;;;9.15;100.00
14818;BME280;7500;57.698;11.986;2023-02-01T10:16:05;99555.34;;;9.01;100.00
14818;BME280;7500;57.698;11.986;2023-02-01T10:18:57;99561.78;;;8.55;100.00
14818;BME280;7500;57.698;11.986;2023-02-01T10:21:38;99553.72;;;8.58;100.00
14818;BME280;7500;57.698;11.986;2023-02-01T10:24:24;99566.31;;;9.07;100.00
14818;BME280;7500;57.698;11.986;2023-02-01T10:26:59;99522.44;;;8.94;100.00
14818;BME280;7500;57.698;11.986;2023-02-01T10:29:32;99563.97;;;9.17;100.00
14818;BME280;7500;57.698;11.986;2023-02-01T10:32:02;99547.88;;;8.81;100.00
14818;BME280;7500;57.698;11.986;2023-02-01T10:34:31;99561.69;;;8.71;100.00
14818;BME280;7500;57.698;11.986;2023-02-01T10:37:04;99565.13;;;8.85;100.00
14818;BME280;7500;57.698;11.986;2023-02-01T10:39:38;99571.72;;;8.92;100.00
14818;BME280;7500;57.698;11.986;2023-02-01T10:42:04;99571.31;;;8.98;100.00
14818;BME280;7500;57.698;11.986;2023-02-01T10:44:35;99568.94;;;9.07;100.00
14818;BME280;7500;57.698;11.986;2023-02-01T10:47:08;99572.25;;;9.11;100.00
14818;BME280;7500;57.698;11.986;2023-02-01T10:49:38;99560.31;;;9.05;100.00
14818;BME280;7500;57.698;11.986;2023-02-01T10:52:12;99543.50;;;8.94;100.00
14818;BME280;7500;57.698;11.986;2023-02-01T10:54:43;99578.84;;;9.04;100.00
14818;BME280;7500;57.698;11.986;2023-02-01T10:57:21;99573.44;;;9.19;100.00
14818;BME280;7500;57.698;11.986;2023-02-01T10:59:49;99574.63;;;9.28;100.00
14818;BME280;7500;57.698;11.986;2023-02-01T11:02:21;99565.53;;;9.19;100.00
14818;BME280;7500;57.698;11.986;2023-02-01T11:05:00;99559.56;;;9.30;100.00
14818;BME280;7500;57.698;11.986;2023-02-01T11:07:27;99567.59;;;9.28;100.00
14818;BME280;7500;57.698;11.986;2023-02-01T11:09:57;99565.19;;;9.38;100.00
14818;BME280;7500;57.698;11.986;2023-02-01T11:12:29;99564.88;;;9.42;100.00
14818;BME280;7500;57.698;11.986;2023-02-01T11:15:04;99568.47;;;9.41;100.00
14818;BME280;7500;57.698;11.986;2023-02-01T11:17:42;99570.06;;;9.44;100.00
14818;BME280;7500;57.698;11.986;2023-02-01T11:20:13;99562.16;;;9.44;100.00
14818;BME280;7500;57.698;11.986;2023-02-01T11:22:46;99547.50;;;9.40;100.00
14818;BME280;7500;57.698;11.986;2023-02-01T11:25:16;99562.56;;;9.38;100.00
14818;BME280;7500;57.698;11.986;2023-02-01T11:27:44;99560.00;;;9.36;100.00
14818;BME280;7500;57.698;11.986;2023-02-01T11:30:16;99564.06;;;9.42;100.00
14818;BME280;7500;57.698;11.986;2023-02-01T11:32:45;99559.50;;;9.31;100.00
14818;BME280;7500;57.698;11.986;2023-02-01T11:35:15;99568.47;;;9.41;100.00
14818;BME280;7500;57.698;11.986;2023-02-01T11:37:45;99574.03;;;9.37;100.00
14818;BME280;7500;57.698;11.986;2023-02-01T11:40:26;99571.84;;;9.43;100.00
14818;BME280;7500;57.698;11.986;2023-02-01T11:42:56;99567.69;;;9.53;100.00
14818;BME280;7500;57.698;11.986;2023-02-01T11:45:27;99558.78;;;9.42;100.00
14818;BME280;7500;57.698;11.986;2023-02-01T11:47:56;99568.56;;;9.40;100.00
14818;BME280;7500;57.698;11.986;2023-02-01T11:50:30;99560.13;;;9.35;100.00
14818;BME280;7500;57.698;11.986;2023-02-01T11:53:23;99563.31;;;9.40;100.00
14818;BME280;7500;57.698;11.986;2023-02-01T11:56:08;99558.50;;;9.59;100.00
14818;BME280;7500;57.698;11.986;2023-02-01T11:58:50;99563.38;;;9.65;100.00
14818;BME280;7500;57.698;11.986;2023-02-01T12:01:30;99558.03;;;9.66;100.00
14818;BME280;7500;57.698;11.986;2023-02-01T12:07:08;99546.81;;;9.63;100.00
14818;BME280;7500;57.698;11.986;2023-02-01T12:09:50;99559.47;;;9.58;100.00
14818;BME280;7500;57.698;11.986;2023-02-01T12:12:25;99544.03;;;9.52;100.00
14818;BME280;7500;57.698;11.986;2023-02-01T12:15:12;99552.28;;;9.47;100.00
14818;BME280;7500;57.698;11.986;2023-02-01T12:18:05;99538.47;;;9.44;100.00
14818;BME280;7500;57.698;11.986;2023-02-01T12:21:01;99529.06;;;9.40;100.00
14818;BME280;7500;57.698;11.986;2023-02-01T12:23:58;99530.41;;;9.33;100.00
14818;BME280;7500;57.698;11.986;2023-02-01T12:26:43;99526.84;;;9.34;100.00
14818;BME280;7500;57.698;11.986;2023-02-01T12:29:42;99530.09;;;9.37;100.00
14818;BME280;7500;57.698;11.986;2023-02-01T12:32:24;99531.19;;;9.47;100.00
14818;BME280;7500;57.698;11.986;2023-02-01T12:35:16;99527.53;;;9.50;100.00
14818;BME280;7500;57.698;11.986;2023-02-01T12:38:02;99533.50;;;9.52;100.00
14818;BME280;7500;57.698;11.986;2023-02-01T12:40:45;99525.84;;;9.49;100.00
14818;BME280;7500;57.698;11.986;2023-02-01T12:43:19;99518.44;;;9.54;100.00
14818;BME280;7500;57.698;11.986;2023-02-01T12:45:56;99524.41;;;9.70;100.00
14818;BME280;7500;57.698;11.986;2023-02-01T12:48:31;99517.47;;;9.81;100.00
14818;BME280;7500;57.698;11.986;2023-02-01T12:51:02;99509.97;;;9.88;100.00
14818;BME280;7500;57.698;11.986;2023-02-01T12:53:41;99513.41;;;10.02;100.00
14818;BME280;7500;57.698;11.986;2023-02-01T12:56:12;99505.69;;;9.99;100.00
14818;BME280;7500;57.698;11.986;2023-02-01T12:58:44;99515.19;;;10.02;100.00
14818;BME280;7500;57.698;11.986;2023-02-01T13:01:16;99519.91;;;9.97;100.00
14818;BME280;7500;57.698;11.986;2023-02-01T13:03:52;99506.09;;;9.81;100.00
14818;BME280;7500;57.698;11.986;2023-02-01T13:06:23;99510.06;;;9.74;100.00
14818;BME280;7500;57.698;11.986;2023-02-01T13:08:57;99516.38;;;9.71;100.00
14818;BME280;7500;57.698;11.986;2023-02-01T13:11:30;99500.81;;;9.68;100.00
14818;BME280;7500;57.698;11.986;2023-02-01T13:14:02;99509.41;;;9.70;100.00
14818;BME280;7500;57.698;11.986;2023-02-01T13:16:35;99489.38;;;9.43;100.00
14818;BME280;7500;57.698;11.986;2023-02-01T13:19:09;99512.34;;;9.53;100.00
14818;BME280;7500;57.698;11.986;2023-02-01T13:21:42;99515.63;;;9.57;100.00
14818;BME280;7500;57.698;11.986;2023-02-01T13:24:30;99509.56;;;9.42;100.00
14818;BME280;7500;57.698;11.986;2023-02-01T13:26:59;99520.31;;;9.39;100.00
14818;BME280;7500;57.698;11.986;2023-02-01T13:29:28;99518.19;;;9.32;100.00